Terminal Aerodrome Forecast
Issued by NWS Shreveport, LA

Home | Current Version | Previous Version | Text Only | Print | Product List | Glossary On
Versions: 1 2 3 4 5 6 7 8 9 10 11 12
000
FTUS44 KSHV 282300
TAFLFK
TAF
KLFK 282334Z 2900/2924 17007KT P6SM BKN045
      TEMPO 2906/2910 5SM BR BKN015
     FM291000 17007KT 5SM BR OVC015
      TEMPO 2910/2913 2SM BR BKN008
     FM291500 19010KT P6SM OVC020
     FM291700 19014G24KT P6SM SCT040=

USA.gov is the U.S. government's official web portal to all federal, state and local government web resources and services.